createdAt,value
2022-11-19T00:01:15.703Z,12.32
2022-11-19T00:03:45.659Z,15.23
2022-11-19T00:06:18.061Z,10.07
2022-11-19T00:08:45.821Z,10.30
2022-11-19T00:11:44.628Z,13.13
2022-11-19T00:14:13.429Z,10.80
2022-11-19T00:16:40.446Z,10.07
2022-11-19T00:19:07.180Z,10.90
2022-11-19T00:21:34.021Z,8.55
2022-11-19T00:24:00.549Z,10.38
2022-11-19T00:26:27.639Z,13.20
2022-11-19T00:28:55.239Z,9.82
2022-11-19T00:31:21.846Z,10.75
2022-11-19T00:33:50.587Z,11.48
2022-11-19T00:36:17.664Z,9.10
2022-11-19T00:38:44.245Z,11.18
2022-11-19T00:41:11.595Z,10.00
2022-11-19T00:43:47.149Z,10.23
2022-11-19T00:46:25.173Z,11.20
2022-11-19T00:48:54.116Z,10.98
2022-11-19T00:51:22.340Z,9.52
2022-11-19T00:53:49.315Z,10.18
2022-11-19T00:56:18.242Z,10.68
2022-11-19T00:58:46.019Z,8.43
2022-11-19T01:01:14.372Z,14.35
2022-11-19T01:03:42.404Z,8.35
2022-11-19T01:06:09.876Z,10.10
2022-11-19T01:08:37.406Z,11.27
2022-11-19T01:11:15.208Z,8.10
2022-11-19T01:13:42.624Z,13.27
2022-11-19T01:16:13.376Z,13.07
2022-11-19T01:18:41.512Z,10.55
2022-11-19T01:21:10.789Z,8.88
2022-11-19T01:23:39.205Z,8.52
2022-11-19T01:26:06.224Z,10.15
2022-11-19T01:28:32.849Z,8.20
2022-11-19T01:30:59.771Z,9.77
2022-11-19T01:33:26.505Z,10.15
2022-11-19T01:36:01.317Z,10.80
2022-11-19T01:38:29.180Z,11.50
2022-11-19T01:40:56.745Z,7.72
2022-11-19T01:43:43.895Z,10.35
2022-11-19T01:46:13.173Z,10.98
2022-11-19T01:49:06.299Z,12.15
2022-11-19T01:51:38.507Z,11.70
2022-11-19T01:54:12.768Z,13.77
2022-11-19T01:56:39.665Z,9.85
2022-11-19T01:59:11.253Z,7.85
2022-11-19T02:01:37.883Z,12.52
2022-11-19T02:04:06.309Z,7.88
2022-11-19T02:06:33.961Z,9.45
2022-11-19T02:09:00.698Z,11.20
2022-11-19T02:12:05.723Z,11.50
2022-11-19T02:14:35.160Z,10.02
2022-11-19T02:17:33.372Z,9.60
2022-11-19T02:20:28.732Z,9.73
2022-11-19T02:23:13.268Z,8.82
2022-11-19T02:25:58.561Z,9.95
2022-11-19T02:28:40.712Z,12.48
2022-11-19T02:31:21.914Z,10.75
2022-11-19T02:34:01.343Z,7.82
2022-11-19T02:36:50.182Z,16.35
2022-11-19T02:39:35.391Z,10.80
2022-11-19T02:42:10.576Z,11.13
2022-11-19T02:44:58.807Z,9.30
2022-11-19T02:47:34.179Z,11.23
2022-11-19T02:50:10.962Z,10.30
2022-11-19T02:52:43.870Z,11.60
2022-11-19T02:55:18.933Z,12.40
2022-11-19T02:57:57.611Z,7.72
2022-11-19T03:00:43.453Z,11.65
2022-11-19T03:03:35.611Z,10.40
2022-11-19T03:06:11.854Z,10.20
2022-11-19T03:08:39.064Z,8.77
2022-11-19T03:11:26.569Z,8.00
2022-11-19T03:14:20.977Z,7.75
2022-11-19T03:16:58.605Z,10.70
2022-11-19T03:19:36.671Z,11.05
2022-11-19T03:22:10.050Z,8.85
2022-11-19T03:24:41.879Z,10.50
2022-11-19T03:27:16.196Z,12.10
2022-11-19T03:29:50.571Z,9.43
2022-11-19T03:32:22.639Z,9.50
2022-11-19T03:34:56.344Z,10.20
2022-11-19T03:37:25.357Z,10.95
2022-11-19T03:39:53.955Z,11.07
2022-11-19T03:42:22.180Z,9.05
2022-11-19T03:44:54.542Z,9.02
2022-11-19T03:47:37.089Z,11.43
2022-11-19T03:50:18.962Z,12.48
2022-11-19T03:52:45.611Z,9.95
2022-11-19T03:55:12.639Z,10.50
2022-11-19T03:57:39.672Z,8.40
2022-11-19T04:00:06.722Z,7.82
2022-11-19T04:02:40.025Z,12.82
2022-11-19T04:05:06.959Z,10.93
2022-11-19T04:07:33.871Z,8.40
2022-11-19T04:10:00.570Z,8.18
2022-11-19T04:12:27.104Z,10.38
2022-11-19T04:14:53.781Z,9.35
2022-11-19T04:17:20.737Z,8.63
2022-11-19T04:19:47.548Z,8.60
2022-11-19T04:22:14.062Z,10.32
2022-11-19T04:24:40.624Z,11.80
2022-11-19T04:27:07.193Z,8.90
2022-11-19T04:29:33.780Z,10.88
2022-11-19T04:32:00.364Z,9.32
2022-11-19T04:34:27.016Z,11.70
2022-11-19T04:36:53.886Z,8.35
2022-11-19T04:39:20.973Z,9.25
2022-11-19T04:41:47.818Z,10.57
2022-11-19T04:44:14.376Z,9.38
2022-11-19T04:46:40.941Z,9.82
2022-11-19T04:49:07.473Z,9.70
2022-11-19T04:51:34.123Z,10.90
2022-11-19T04:54:00.958Z,10.27
2022-11-19T04:56:27.801Z,13.52
2022-11-19T04:58:54.374Z,11.77
2022-11-19T05:01:21.220Z,9.55
2022-11-19T05:03:48.475Z,8.95
2022-11-19T05:06:15.066Z,11.02
2022-11-19T05:08:41.770Z,10.90
2022-11-19T05:11:08.516Z,11.00
2022-11-19T05:13:35.234Z,11.63
2022-11-19T05:16:02.058Z,21.88
2022-11-19T05:18:28.660Z,13.77
2022-11-19T05:20:55.371Z,10.15
2022-11-19T05:23:22.411Z,11.77
2022-11-19T05:25:49.291Z,11.82
2022-11-19T05:28:15.878Z,8.38
2022-11-19T05:30:42.615Z,12.15
2022-11-19T05:33:09.288Z,9.75
2022-11-19T05:35:35.890Z,12.73
2022-11-19T05:38:02.776Z,10.60
2022-11-19T05:40:29.415Z,9.00
2022-11-19T05:42:56.095Z,12.13
2022-11-19T05:45:23.480Z,9.32
2022-11-19T05:47:54.888Z,9.52
2022-11-19T05:50:21.409Z,9.30
2022-11-19T05:52:50.522Z,8.98
2022-11-19T05:55:17.516Z,12.38
2022-11-19T05:57:44.209Z,9.27
2022-11-19T06:00:11.820Z,10.80
2022-11-19T06:02:41.390Z,9.38
2022-11-19T06:05:08.405Z,11.38
2022-11-19T06:07:35.096Z,11.95
2022-11-19T06:10:05.323Z,9.85
2022-11-19T06:12:31.910Z,10.38
2022-11-19T06:14:59.273Z,11.93
2022-11-19T06:17:25.854Z,12.80
2022-11-19T06:19:52.479Z,15.05
2022-11-19T06:22:19.246Z,11.82
2022-11-19T06:24:45.946Z,16.35
2022-11-19T06:27:12.695Z,12.93
2022-11-19T06:29:39.196Z,11.95
2022-11-19T06:32:05.878Z,10.25
2022-11-19T06:34:32.443Z,13.90
2022-11-19T06:36:59.096Z,11.82
2022-11-19T06:39:25.768Z,11.77
2022-11-19T06:41:52.413Z,12.48
2022-11-19T06:44:19.285Z,12.45
2022-11-19T06:46:46.405Z,15.10
2022-11-19T06:49:18.411Z,13.15
2022-11-19T06:51:47.585Z,12.35
2022-11-19T06:54:14.163Z,11.73
2022-11-19T06:56:40.937Z,11.48
2022-11-19T06:59:07.502Z,11.55
2022-11-19T07:01:34.320Z,13.07
2022-11-19T07:04:01.256Z,10.90
2022-11-19T07:06:27.768Z,16.83
2022-11-19T07:08:54.291Z,13.18
2022-11-19T07:11:26.825Z,13.82
2022-11-19T07:13:58.016Z,16.20
2022-11-19T07:16:33.405Z,15.30
2022-11-19T07:19:02.852Z,13.45
2022-11-19T07:21:30.093Z,14.43
2022-11-19T07:23:58.210Z,10.10
2022-11-19T07:26:25.559Z,13.13
2022-11-19T07:28:52.875Z,10.43
2022-11-19T07:31:24.514Z,10.93
2022-11-19T07:33:51.074Z,14.68
2022-11-19T07:36:18.675Z,17.00
2022-11-19T07:38:46.346Z,12.82
2022-11-19T07:41:32.678Z,13.95
2022-11-19T07:43:59.264Z,18.40
2022-11-19T07:46:25.908Z,18.92
2022-11-19T07:48:56.879Z,16.65
2022-11-19T07:51:26.766Z,15.95
2022-11-19T07:53:57.712Z,15.18
2022-11-19T07:56:25.034Z,15.63
2022-11-19T07:58:52.438Z,15.30
2022-11-19T08:01:24.142Z,11.85
2022-11-19T08:03:56.375Z,14.20
2022-11-19T08:06:26.068Z,13.52
2022-11-19T08:08:55.032Z,11.75
2022-11-19T08:11:22.161Z,14.45
2022-11-19T08:13:49.106Z,14.38
2022-11-19T08:16:35.980Z,13.82
2022-11-19T08:19:04.382Z,14.05
2022-11-19T08:21:31.079Z,15.75
2022-11-19T08:23:57.994Z,17.38
2022-11-19T08:26:24.839Z,13.55
2022-11-19T08:28:51.714Z,18.17
2022-11-19T08:31:18.430Z,10.98
2022-11-19T08:33:46.589Z,13.90
2022-11-19T08:36:15.853Z,15.75
2022-11-19T08:38:42.519Z,14.35
2022-11-19T08:41:27.783Z,15.95
2022-11-19T08:43:54.806Z,14.88
2022-11-19T08:46:21.488Z,12.45
2022-11-19T08:48:48.128Z,12.93
2022-11-19T08:51:16.549Z,12.52
2022-11-19T08:53:43.640Z,14.60
2022-11-19T08:56:14.024Z,16.40
2022-11-19T08:58:45.445Z,13.52
2022-11-19T09:01:14.075Z,18.85
2022-11-19T09:03:41.225Z,13.95
2022-11-19T09:06:08.321Z,19.42
2022-11-19T09:08:35.810Z,19.42
2022-11-19T09:11:14.288Z,16.60
2022-11-19T09:13:41.934Z,19.38
2022-11-19T09:16:09.958Z,18.00
2022-11-19T09:18:39.253Z,15.82
2022-11-19T09:21:07.803Z,13.75
2022-11-19T09:23:34.330Z,13.10
2022-11-19T09:26:03.619Z,19.73
2022-11-19T09:28:31.308Z,11.40
2022-11-19T09:31:02.195Z,6.25
2022-11-19T09:33:34.444Z,6.65
2022-11-19T09:36:01.443Z,7.63
2022-11-19T09:38:28.097Z,9.27
2022-11-19T09:40:56.806Z,9.25
2022-11-19T09:43:49.202Z,7.50
2022-11-19T09:46:36.847Z,6.93
2022-11-19T09:49:11.876Z,7.93
2022-11-19T09:51:42.675Z,8.07
2022-11-19T09:54:18.973Z,11.20
2022-11-19T09:56:47.609Z,11.23
2022-11-19T09:59:27.300Z,13.10
2022-11-19T10:01:56.638Z,12.50
2022-11-19T10:04:26.140Z,7.57
2022-11-19T10:07:01.819Z,10.65
2022-11-19T10:09:44.639Z,11.02
2022-11-19T10:12:20.675Z,14.27
2022-11-19T10:15:11.008Z,10.32
2022-11-19T10:18:02.458Z,11.60
2022-11-19T10:20:50.761Z,12.45
2022-11-19T10:23:20.623Z,9.68
2022-11-19T10:25:50.341Z,9.00
2022-11-19T10:28:25.648Z,11.40
2022-11-19T10:30:55.796Z,10.48
2022-11-19T10:33:32.682Z,9.20
2022-11-19T10:36:06.879Z,8.38
2022-11-19T10:38:40.572Z,12.05
2022-11-19T10:41:23.391Z,8.38
2022-11-19T10:43:59.752Z,8.05
2022-11-19T10:46:28.617Z,10.23
2022-11-19T10:48:58.394Z,7.32
2022-11-19T10:51:33.666Z,8.68
2022-11-19T10:54:04.356Z,11.38
2022-11-19T10:56:40.266Z,14.25
2022-11-19T10:59:12.375Z,7.50
2022-11-19T11:01:45.087Z,7.97
2022-11-19T11:04:26.209Z,6.88
2022-11-19T11:06:58.495Z,6.38
2022-11-19T11:09:37.027Z,11.13
2022-11-19T11:12:40.752Z,7.85
2022-11-19T11:15:15.734Z,4.57
2022-11-19T11:17:44.641Z,7.38
2022-11-19T11:20:14.120Z,8.88
2022-11-19T11:22:40.880Z,8.05
2022-11-19T11:25:27.226Z,6.03
2022-11-19T11:28:17.783Z,6.40
2022-11-19T11:31:00.953Z,6.72
2022-11-19T11:33:32.604Z,7.45
2022-11-19T11:36:03.437Z,5.78
2022-11-19T11:38:30.957Z,6.88
2022-11-19T11:41:35.300Z,6.35
2022-11-19T11:44:02.516Z,6.43
2022-11-19T11:46:51.180Z,7.55
2022-11-19T11:49:43.277Z,7.82
2022-11-19T11:52:09.872Z,6.90
2022-11-19T11:54:37.515Z,7.70
2022-11-19T11:57:25.162Z,6.28
2022-11-19T11:59:52.234Z,5.63
2022-11-19T12:02:21.250Z,5.57
2022-11-19T12:04:50.094Z,4.97
2022-11-19T12:07:51.574Z,5.88
2022-11-19T12:10:26.717Z,8.27
2022-11-19T12:13:44.407Z,11.65
2022-11-19T12:16:26.583Z,5.80
2022-11-19T12:19:24.721Z,6.20
2022-11-19T12:22:00.555Z,6.47
2022-11-19T12:24:30.133Z,7.63
2022-11-19T12:27:08.494Z,6.22
2022-11-19T12:29:38.049Z,6.05
2022-11-19T12:32:19.680Z,6.07
2022-11-19T12:34:55.092Z,5.75
2022-11-19T12:37:49.337Z,7.20
2022-11-19T12:40:42.407Z,8.90
2022-11-19T12:43:34.091Z,7.72
2022-11-19T12:46:25.149Z,9.40
2022-11-19T12:49:09.423Z,7.60
2022-11-19T12:51:44.335Z,7.47
2022-11-19T12:54:27.858Z,6.63
2022-11-19T12:57:19.187Z,8.68
2022-11-19T13:00:18.815Z,6.18
2022-11-19T13:03:12.370Z,5.28
2022-11-19T13:06:02.738Z,5.88
2022-11-19T13:08:49.847Z,6.43
2022-11-19T13:11:36.717Z,5.32
2022-11-19T13:14:11.338Z,5.07
2022-11-19T13:16:38.012Z,5.28
2022-11-19T13:19:20.208Z,6.32
2022-11-19T13:21:55.984Z,5.18
2022-11-19T13:24:35.236Z,6.28
2022-11-19T13:27:05.390Z,5.35
2022-11-19T13:29:54.261Z,5.07
2022-11-19T13:32:44.234Z,6.07
2022-11-19T13:35:18.582Z,5.07
2022-11-19T13:37:58.273Z,5.72
2022-11-19T13:40:37.268Z,6.40
2022-11-19T13:43:32.072Z,6.22
2022-11-19T13:46:16.540Z,6.25
2022-11-19T13:48:54.710Z,5.18
2022-11-19T13:51:39.155Z,7.50
2022-11-19T13:54:08.243Z,5.53
2022-11-19T13:56:40.425Z,5.40
2022-11-19T13:59:08.543Z,6.32
2022-11-19T14:01:55.906Z,6.20
2022-11-19T14:04:32.692Z,7.38
2022-11-19T14:06:59.302Z,6.03
2022-11-19T14:09:46.115Z,7.53
2022-11-19T14:12:34.640Z,6.85
2022-11-19T14:15:46.464Z,7.10
2022-11-19T14:18:43.327Z,7.38
2022-11-19T14:21:44.262Z,7.10
2022-11-19T14:24:45.051Z,5.75
2022-11-19T14:27:20.891Z,8.40
2022-11-19T14:29:47.348Z,8.10
2022-11-19T14:32:13.772Z,8.45
2022-11-19T14:39:53.955Z,6.82
2022-11-19T14:42:21.912Z,6.65
2022-11-19T14:45:04.077Z,6.73
2022-11-19T14:47:43.349Z,6.35
2022-11-19T14:50:26.008Z,12.35
2022-11-19T14:52:56.094Z,6.22
2022-11-19T14:55:26.062Z,6.70
2022-11-19T14:58:02.411Z,7.32
2022-11-19T15:00:28.996Z,11.40
2022-11-19T15:02:56.784Z,11.70
2022-11-19T15:05:31.299Z,21.80
2022-11-19T15:08:43.141Z,24.17
2022-11-19T15:11:14.421Z,36.30
2022-11-19T15:13:48.999Z,15.80
2022-11-19T15:16:27.769Z,15.52
2022-11-19T15:19:00.326Z,20.17
2022-11-19T15:21:51.132Z,8.00
2022-11-19T15:24:27.213Z,8.50
2022-11-19T15:26:53.861Z,11.57
2022-11-19T15:30:05.235Z,11.93
2022-11-19T15:32:50.426Z,9.32
2022-11-19T15:35:30.932Z,12.93
2022-11-19T15:38:04.325Z,12.38
2022-11-19T15:40:36.269Z,8.23
2022-11-19T15:43:15.146Z,7.97
2022-11-19T15:46:03.597Z,7.15
2022-11-19T15:48:32.946Z,10.15
2022-11-19T15:51:01.172Z,10.73
2022-11-19T15:53:28.293Z,9.00
2022-11-19T15:55:59.836Z,10.90
2022-11-19T15:58:36.913Z,10.18
2022-11-19T16:01:04.487Z,12.57
2022-11-19T16:03:32.535Z,14.68
2022-11-19T16:06:03.631Z,14.15
2022-11-19T16:08:30.676Z,14.55
2022-11-19T16:11:20.579Z,12.77
2022-11-19T16:14:10.952Z,16.48
2022-11-19T16:16:56.490Z,17.13
2022-11-19T16:19:23.773Z,13.27
2022-11-19T16:21:58.879Z,16.17
2022-11-19T16:24:46.266Z,11.50
2022-11-19T16:27:20.529Z,15.07
2022-11-19T16:29:47.224Z,14.23
2022-11-19T16:32:21.821Z,20.75
2022-11-19T16:34:48.558Z,19.27
2022-11-19T16:37:21.774Z,18.38
2022-11-19T16:39:53.228Z,26.30
2022-11-19T16:42:26.807Z,22.45
2022-11-19T16:45:08.451Z,18.05
2022-11-19T16:47:40.037Z,16.02
2022-11-19T16:50:29.551Z,15.95
2022-11-19T16:52:56.383Z,12.90
2022-11-19T16:55:25.910Z,14.35
2022-11-19T16:57:56.874Z,11.82
2022-11-19T17:00:28.536Z,16.23
2022-11-19T17:02:55.410Z,17.20
2022-11-19T17:05:24.864Z,13.02
2022-11-19T17:08:05.764Z,16.73
2022-11-19T17:10:34.161Z,18.77
2022-11-19T17:13:28.255Z,16.85
2022-11-19T17:15:55.153Z,17.48
2022-11-19T17:18:34.449Z,19.83
2022-11-19T17:21:08.998Z,18.95
2022-11-19T17:23:48.259Z,29.83
2022-11-19T17:26:22.500Z,22.40
2022-11-19T17:28:52.243Z,17.90
2022-11-19T17:31:27.400Z,14.93
2022-11-19T17:34:07.344Z,20.88
2022-11-19T17:36:34.083Z,22.40
2022-11-19T17:39:00.733Z,17.88
2022-11-19T17:41:48.317Z,18.60
2022-11-19T17:44:34.679Z,17.08
2022-11-19T17:47:07.383Z,19.40
2022-11-19T17:49:45.805Z,21.90
2022-11-19T17:52:24.685Z,18.33
2022-11-19T17:54:53.942Z,18.45
2022-11-19T17:57:20.768Z,19.88
2022-11-19T17:59:47.430Z,19.95
2022-11-19T18:02:17.029Z,15.57
2022-11-19T18:04:45.306Z,14.75
2022-11-19T18:07:12.575Z,20.17
2022-11-19T18:09:40.561Z,17.52
2022-11-19T18:12:12.517Z,18.05
2022-11-19T18:14:39.200Z,19.00
2022-11-19T18:17:06.004Z,21.50
2022-11-19T18:19:33.789Z,21.85
2022-11-19T18:22:00.469Z,19.17
2022-11-19T18:24:27.326Z,18.25
2022-11-19T18:26:54.031Z,15.98
2022-11-19T18:29:21.192Z,18.42
2022-11-19T18:31:50.892Z,16.17
2022-11-19T18:34:20.484Z,21.10
2022-11-19T18:36:47.187Z,19.45
2022-11-19T18:39:14.601Z,20.80
2022-11-19T18:41:41.857Z,14.82
2022-11-19T18:44:32.485Z,16.75
2022-11-19T18:47:03.941Z,21.95
2022-11-19T18:49:30.852Z,20.08
2022-11-19T18:51:57.494Z,21.00
2022-11-19T18:54:24.191Z,19.15
2022-11-19T18:56:51.062Z,21.83
2022-11-19T18:59:18.327Z,17.50
2022-11-19T19:01:45.404Z,23.33
2022-11-19T19:04:14.430Z,22.60
2022-11-19T19:06:41.861Z,21.20
2022-11-19T19:09:10.362Z,20.63
2022-11-19T19:11:56.932Z,15.23
2022-11-19T19:14:23.520Z,17.88
2022-11-19T19:16:51.009Z,17.80
2022-11-19T19:19:19.992Z,17.75
2022-11-19T19:21:47.409Z,19.48
2022-11-19T19:24:14.551Z,18.52
2022-11-19T19:26:41.661Z,23.92
2022-11-19T19:29:08.506Z,20.60
2022-11-19T19:31:36.169Z,25.05
2022-11-19T19:34:03.319Z,24.33
2022-11-19T19:36:30.397Z,20.95
2022-11-19T19:38:57.166Z,22.48
2022-11-19T19:41:26.104Z,23.23
2022-11-19T19:43:54.764Z,22.55
2022-11-19T19:46:23.559Z,17.25
2022-11-19T19:48:52.478Z,22.08
2022-11-19T19:51:21.103Z,19.13
2022-11-19T19:53:48.389Z,18.58
2022-11-19T19:56:19.093Z,21.52
2022-11-19T19:58:47.120Z,19.15
2022-11-19T20:01:16.757Z,19.75
2022-11-19T20:03:44.755Z,25.65
2022-11-19T20:06:13.422Z,20.23
2022-11-19T20:08:40.899Z,21.23
2022-11-19T20:11:13.486Z,25.77
2022-11-19T20:13:40.946Z,20.52
2022-11-19T20:16:14.576Z,21.88
2022-11-19T20:18:45.688Z,22.35
2022-11-19T20:21:15.561Z,21.77
2022-11-19T20:23:42.697Z,29.80
2022-11-19T20:26:18.002Z,47.08
2022-11-19T20:28:45.401Z,38.67
2022-11-19T20:31:18.418Z,37.17
2022-11-19T20:33:46.621Z,30.00
2022-11-19T20:36:15.718Z,30.52
2022-11-19T20:38:44.260Z,31.58
2022-11-19T20:41:33.368Z,26.35
2022-11-19T20:44:20.343Z,31.35
2022-11-19T20:46:47.237Z,29.52
2022-11-19T20:49:16.941Z,29.42
2022-11-19T20:51:45.188Z,34.30
2022-11-19T20:54:12.276Z,31.33
2022-11-19T20:56:39.980Z,32.72
2022-11-19T20:59:06.921Z,34.03
2022-11-19T21:01:34.581Z,32.20
2022-11-19T21:04:01.574Z,32.17
2022-11-19T21:06:28.640Z,30.58
2022-11-19T21:08:55.995Z,22.38
2022-11-19T21:11:22.664Z,28.27
2022-11-19T21:13:49.463Z,20.15
2022-11-19T21:16:24.054Z,27.98
2022-11-19T21:18:51.308Z,22.20
2022-11-19T21:21:19.705Z,24.60
2022-11-19T21:23:46.746Z,23.02
2022-11-19T21:26:19.775Z,28.60
2022-11-19T21:28:49.342Z,25.08
2022-11-19T21:31:18.122Z,26.27
2022-11-19T21:33:44.724Z,22.50
2022-11-19T21:36:12.500Z,23.45
2022-11-19T21:38:39.492Z,26.00
2022-11-19T21:41:07.028Z,20.77
2022-11-19T21:43:33.930Z,21.58
2022-11-19T21:46:00.541Z,20.45
2022-11-19T21:48:27.290Z,17.88
2022-11-19T21:50:54.289Z,23.23
2022-11-19T21:53:21.214Z,22.33
2022-11-19T21:55:48.403Z,20.95
2022-11-19T21:58:15.488Z,19.42
2022-11-19T22:00:43.892Z,21.30
2022-11-19T22:03:10.630Z,17.50
2022-11-19T22:05:37.203Z,20.85
2022-11-19T22:08:03.940Z,21.67
2022-11-19T22:10:30.719Z,19.67
2022-11-19T22:13:00.122Z,23.00
2022-11-19T22:15:27.189Z,21.65
2022-11-19T22:17:54.842Z,22.27
2022-11-19T22:20:21.818Z,21.83
2022-11-19T22:22:48.420Z,24.85
2022-11-19T22:25:15.319Z,19.80
2022-11-19T22:27:42.034Z,22.10
2022-11-19T22:30:10.055Z,23.13
2022-11-19T22:32:37.038Z,21.92
2022-11-19T22:35:04.911Z,24.60
2022-11-19T22:37:31.980Z,24.38
2022-11-19T22:39:58.646Z,23.33
2022-11-19T22:42:25.365Z,23.80
2022-11-19T22:44:52.373Z,22.33
2022-11-19T22:47:19.070Z,23.13
2022-11-19T22:49:45.647Z,23.30
2022-11-19T22:52:14.570Z,23.52
2022-11-19T22:54:41.967Z,27.52
2022-11-19T22:57:09.698Z,17.77
2022-11-19T22:59:36.760Z,20.65
2022-11-19T23:02:03.827Z,20.92
2022-11-19T23:04:30.484Z,19.50
2022-11-19T23:06:57.238Z,21.42
2022-11-19T23:09:24.239Z,23.70
2022-11-19T23:12:09.833Z,20.80
2022-11-19T23:14:36.655Z,20.67
2022-11-19T23:17:04.430Z,19.13
2022-11-19T23:19:31.204Z,21.85
2022-11-19T23:21:57.877Z,21.20
2022-11-19T23:24:24.499Z,17.95
2022-11-19T23:26:51.103Z,23.27
2022-11-19T23:29:17.880Z,17.60
2022-11-19T23:31:44.728Z,16.63
2022-11-19T23:34:11.840Z,17.25
2022-11-19T23:36:40.486Z,17.27
2022-11-19T23:39:12.701Z,21.52
2022-11-19T23:41:39.524Z,15.63
2022-11-19T23:44:06.210Z,18.13
2022-11-19T23:46:34.897Z,19.10
2022-11-19T23:49:03.187Z,19.95
2022-11-19T23:51:32.548Z,18.98
2022-11-19T23:53:59.313Z,15.35
2022-11-19T23:56:26.895Z,16.83
2022-11-19T23:58:53.835Z,14.48
